sensor_id;sensor_type;location;lat;lon;timestamp;temperature;humidity
12578;DHT22;6354;51.026;8.968;2022-09-24T00:02:14;9.60;99.90
12578;DHT22;6354;51.026;8.968;2022-09-24T00:04:42;9.60;99.90
12578;DHT22;6354;51.026;8.968;2022-09-24T00:07:10;9.60;99.90
12578;DHT22;6354;51.026;8.968;2022-09-24T00:09:38;9.60;99.90
12578;DHT22;6354;51.026;8.968;2022-09-24T00:12:06;9.50;99.90
12578;DHT22;6354;51.026;8.968;2022-09-24T00:14:38;9.40;99.90
12578;DHT22;6354;51.026;8.968;2022-09-24T00:17:06;9.40;99.90
12578;DHT22;6354;51.026;8.968;2022-09-24T00:19:36;9.40;99.90
12578;DHT22;6354;51.026;8.968;2022-09-24T00:22:04;9.40;99.90
12578;DHT22;6354;51.026;8.968;2022-09-24T00:24:32;9.40;99.90
12578;DHT22;6354;51.026;8.968;2022-09-24T00:27:17;9.40;99.90
12578;DHT22;6354;51.026;8.968;2022-09-24T00:29:45;9.40;99.90
12578;DHT22;6354;51.026;8.968;2022-09-24T00:32:13;9.30;99.90
12578;DHT22;6354;51.026;8.968;2022-09-24T00:34:43;9.30;99.90
12578;DHT22;6354;51.026;8.968;2022-09-24T00:37:11;9.20;99.90
12578;DHT22;6354;51.026;8.968;2022-09-24T00:39:39;9.20;99.90
12578;DHT22;6354;51.026;8.968;2022-09-24T00:42:08;9.20;99.90
12578;DHT22;6354;51.026;8.968;2022-09-24T00:44:50;9.20;99.90
12578;DHT22;6354;51.026;8.968;2022-09-24T00:47:31;9.20;99.90
12578;DHT22;6354;51.026;8.968;2022-09-24T00:50:11;9.10;99.90
12578;DHT22;6354;51.026;8.968;2022-09-24T00:52:43;9.10;99.90
12578;DHT22;6354;51.026;8.968;2022-09-24T00:55:13;9.10;99.90
12578;DHT22;6354;51.026;8.968;2022-09-24T00:57:41;9.10;99.90
12578;DHT22;6354;51.026;8.968;2022-09-24T01:00:11;9.10;99.90
12578;DHT22;6354;51.026;8.968;2022-09-24T01:02:42;9.10;99.90
12578;DHT22;6354;51.026;8.968;2022-09-24T01:05:12;9.10;99.90
12578;DHT22;6354;51.026;8.968;2022-09-24T01:07:40;9.10;99.90
12578;DHT22;6354;51.026;8.968;2022-09-24T01:10:09;9.10;99.90
12578;DHT22;6354;51.026;8.968;2022-09-24T01:12:42;9.10;99.90
12578;DHT22;6354;51.026;8.968;2022-09-24T01:15:18;9.00;99.90
12578;DHT22;6354;51.026;8.968;2022-09-24T01:17:53;9.00;99.90
12578;DHT22;6354;51.026;8.968;2022-09-24T01:20:52;9.00;99.90
12578;DHT22;6354;51.026;8.968;2022-09-24T01:26:40;9.00;99.90
12578;DHT22;6354;51.026;8.968;2022-09-24T01:29:33;9.00;99.90
12578;DHT22;6354;51.026;8.968;2022-09-24T01:32:12;9.00;99.90
12578;DHT22;6354;51.026;8.968;2022-09-24T01:34:45;9.10;99.90
12578;DHT22;6354;51.026;8.968;2022-09-24T01:37:17;9.10;99.90
12578;DHT22;6354;51.026;8.968;2022-09-24T01:39:48;9.10;99.90
12578;DHT22;6354;51.026;8.968;2022-09-24T01:42:19;9.10;99.90
12578;DHT22;6354;51.026;8.968;2022-09-24T01:44:50;9.20;99.90
12578;DHT22;6354;51.026;8.968;2022-09-24T01:47:22;9.20;99.90
12578;DHT22;6354;51.026;8.968;2022-09-24T01:50:00;9.20;99.90
12578;DHT22;6354;51.026;8.968;2022-09-24T01:52:33;9.20;99.90
12578;DHT22;6354;51.026;8.968;2022-09-24T01:55:05;9.30;99.90
12578;DHT22;6354;51.026;8.968;2022-09-24T01:57:38;9.30;99.90
12578;DHT22;6354;51.026;8.968;2022-09-24T02:00:12;9.30;99.90
12578;DHT22;6354;51.026;8.968;2022-09-24T02:02:44;9.20;99.90
12578;DHT22;6354;51.026;8.968;2022-09-24T02:05:18;9.20;99.90
12578;DHT22;6354;51.026;8.968;2022-09-24T02:07:55;9.20;99.90
12578;DHT22;6354;51.026;8.968;2022-09-24T02:10:27;9.30;99.90
12578;DHT22;6354;51.026;8.968;2022-09-24T02:12:58;9.30;99.90
12578;DHT22;6354;51.026;8.968;2022-09-24T02:15:32;9.30;99.90
12578;DHT22;6354;51.026;8.968;2022-09-24T02:18:04;9.30;99.90
12578;DHT22;6354;51.026;8.968;2022-09-24T02:20:34;9.30;99.90
12578;DHT22;6354;51.026;8.968;2022-09-24T02:23:03;9.30;99.90
12578;DHT22;6354;51.026;8.968;2022-09-24T02:25:37;9.30;99.90
12578;DHT22;6354;51.026;8.968;2022-09-24T02:28:07;9.30;99.90
12578;DHT22;6354;51.026;8.968;2022-09-24T02:30:41;9.30;99.90
12578;DHT22;6354;51.026;8.968;2022-09-24T02:33:12;9.20;99.90
12578;DHT22;6354;51.026;8.968;2022-09-24T02:35:55;9.30;99.90
12578;DHT22;6354;51.026;8.968;2022-09-24T02:38:23;9.20;99.90
12578;DHT22;6354;51.026;8.968;2022-09-24T02:40:51;9.20;99.90
12578;DHT22;6354;51.026;8.968;2022-09-24T02:43:21;9.20;99.90
12578;DHT22;6354;51.026;8.968;2022-09-24T02:45:50;9.20;99.90
12578;DHT22;6354;51.026;8.968;2022-09-24T02:48:18;9.20;99.90
12578;DHT22;6354;51.026;8.968;2022-09-24T02:50:46;9.20;99.90
12578;DHT22;6354;51.026;8.968;2022-09-24T02:53:14;9.20;99.90
12578;DHT22;6354;51.026;8.968;2022-09-24T02:55:42;9.20;99.90
12578;DHT22;6354;51.026;8.968;2022-09-24T02:58:10;9.20;99.90
12578;DHT22;6354;51.026;8.968;2022-09-24T03:00:38;9.20;99.90
12578;DHT22;6354;51.026;8.968;2022-09-24T03:03:07;9.20;99.90
12578;DHT22;6354;51.026;8.968;2022-09-24T03:05:35;9.30;99.90
12578;DHT22;6354;51.026;8.968;2022-09-24T03:08:03;9.30;99.90
12578;DHT22;6354;51.026;8.968;2022-09-24T03:10:33;9.30;99.90
12578;DHT22;6354;51.026;8.968;2022-09-24T03:13:01;9.30;99.90
12578;DHT22;6354;51.026;8.968;2022-09-24T03:15:29;9.30;99.90
12578;DHT22;6354;51.026;8.968;2022-09-24T03:17:57;9.30;99.90
12578;DHT22;6354;51.026;8.968;2022-09-24T03:20:27;9.30;99.90
12578;DHT22;6354;51.026;8.968;2022-09-24T03:22:55;9.40;99.90
12578;DHT22;6354;51.026;8.968;2022-09-24T03:25:23;9.30;99.90
12578;DHT22;6354;51.026;8.968;2022-09-24T03:27:52;9.30;99.90
12578;DHT22;6354;51.026;8.968;2022-09-24T03:30:20;9.30;99.90
12578;DHT22;6354;51.026;8.968;2022-09-24T03:33:02;9.30;99.90
12578;DHT22;6354;51.026;8.968;2022-09-24T03:35:32;9.20;99.90
12578;DHT22;6354;51.026;8.968;2022-09-24T03:38:00;9.10;99.90
12578;DHT22;6354;51.026;8.968;2022-09-24T03:40:28;9.10;99.90
12578;DHT22;6354;51.026;8.968;2022-09-24T03:42:56;9.00;99.90
12578;DHT22;6354;51.026;8.968;2022-09-24T03:45:24;9.00;99.90
12578;DHT22;6354;51.026;8.968;2022-09-24T03:47:52;9.00;99.90
12578;DHT22;6354;51.026;8.968;2022-09-24T03:50:21;8.90;99.90
12578;DHT22;6354;51.026;8.968;2022-09-24T03:52:50;8.90;99.90
12578;DHT22;6354;51.026;8.968;2022-09-24T03:55:18;8.80;99.90
12578;DHT22;6354;51.026;8.968;2022-09-24T03:57:46;8.80;99.90
12578;DHT22;6354;51.026;8.968;2022-09-24T04:00:14;8.80;99.90
12578;DHT22;6354;51.026;8.968;2022-09-24T04:02:42;8.80;99.90
12578;DHT22;6354;51.026;8.968;2022-09-24T04:05:11;8.80;99.90
12578;DHT22;6354;51.026;8.968;2022-09-24T04:07:41;8.70;99.90
12578;DHT22;6354;51.026;8.968;2022-09-24T04:10:11;8.70;99.90
12578;DHT22;6354;51.026;8.968;2022-09-24T04:12:39;8.60;99.90
12578;DHT22;6354;51.026;8.968;2022-09-24T04:15:09;8.60;99.90
12578;DHT22;6354;51.026;8.968;2022-09-24T04:17:38;8.60;99.90
12578;DHT22;6354;51.026;8.968;2022-09-24T04:20:06;8.60;99.90
12578;DHT22;6354;51.026;8.968;2022-09-24T04:22:34;8.50;99.90
12578;DHT22;6354;51.026;8.968;2022-09-24T04:25:03;8.50;99.90
12578;DHT22;6354;51.026;8.968;2022-09-24T04:27:32;8.50;99.90
12578;DHT22;6354;51.026;8.968;2022-09-24T04:30:01;8.50;99.90
12578;DHT22;6354;51.026;8.968;2022-09-24T04:32:29;8.40;99.90
12578;DHT22;6354;51.026;8.968;2022-09-24T04:34:58;8.40;99.90
12578;DHT22;6354;51.026;8.968;2022-09-24T04:37:32;8.40;99.90
12578;DHT22;6354;51.026;8.968;2022-09-24T04:40:01;8.40;99.90
12578;DHT22;6354;51.026;8.968;2022-09-24T04:42:29;8.50;99.90
12578;DHT22;6354;51.026;8.968;2022-09-24T04:44:58;8.50;99.90
12578;DHT22;6354;51.026;8.968;2022-09-24T04:47:26;8.60;99.90
12578;DHT22;6354;51.026;8.968;2022-09-24T04:49:54;8.50;99.90
12578;DHT22;6354;51.026;8.968;2022-09-24T04:52:22;8.50;99.90
12578;DHT22;6354;51.026;8.968;2022-09-24T04:54:55;8.50;99.90
12578;DHT22;6354;51.026;8.968;2022-09-24T04:57:23;8.50;99.90
12578;DHT22;6354;51.026;8.968;2022-09-24T04:59:53;8.50;99.90
12578;DHT22;6354;51.026;8.968;2022-09-24T05:02:22;8.50;99.90
12578;DHT22;6354;51.026;8.968;2022-09-24T05:04:50;8.50;99.90
12578;DHT22;6354;51.026;8.968;2022-09-24T05:07:18;8.50;99.90
12578;DHT22;6354;51.026;8.968;2022-09-24T05:09:46;8.50;99.90
12578;DHT22;6354;51.026;8.968;2022-09-24T05:12:14;8.50;99.90
12578;DHT22;6354;51.026;8.968;2022-09-24T05:14:45;8.40;99.90
12578;DHT22;6354;51.026;8.968;2022-09-24T05:17:14;8.40;99.90
12578;DHT22;6354;51.026;8.968;2022-09-24T05:19:43;8.40;99.90
12578;DHT22;6354;51.026;8.968;2022-09-24T05:22:11;8.40;99.90
12578;DHT22;6354;51.026;8.968;2022-09-24T05:24:39;8.40;99.90
12578;DHT22;6354;51.026;8.968;2022-09-24T05:27:08;8.30;99.90
12578;DHT22;6354;51.026;8.968;2022-09-24T05:29:36;8.40;99.90
12578;DHT22;6354;51.026;8.968;2022-09-24T05:32:06;8.40;99.90
12578;DHT22;6354;51.026;8.968;2022-09-24T05:34:34;8.40;99.90
12578;DHT22;6354;51.026;8.968;2022-09-24T05:37:03;8.50;99.90
12578;DHT22;6354;51.026;8.968;2022-09-24T05:39:31;8.50;99.90
12578;DHT22;6354;51.026;8.968;2022-09-24T05:42:00;8.60;99.90
12578;DHT22;6354;51.026;8.968;2022-09-24T05:44:29;8.50;99.90
12578;DHT22;6354;51.026;8.968;2022-09-24T05:46:57;8.60;99.90
12578;DHT22;6354;51.026;8.968;2022-09-24T05:49:26;8.60;99.90
12578;DHT22;6354;51.026;8.968;2022-09-24T05:51:53;8.50;99.90
12578;DHT22;6354;51.026;8.968;2022-09-24T05:54:23;8.60;99.90
12578;DHT22;6354;51.026;8.968;2022-09-24T05:56:52;8.60;99.90
12578;DHT22;6354;51.026;8.968;2022-09-24T05:59:20;8.60;99.90
12578;DHT22;6354;51.026;8.968;2022-09-24T06:01:48;8.70;99.90
12578;DHT22;6354;51.026;8.968;2022-09-24T06:04:16;8.70;99.90
12578;DHT22;6354;51.026;8.968;2022-09-24T06:06:44;8.80;99.90
12578;DHT22;6354;51.026;8.968;2022-09-24T06:09:12;8.80;99.90
12578;DHT22;6354;51.026;8.968;2022-09-24T06:11:42;8.80;99.90
12578;DHT22;6354;51.026;8.968;2022-09-24T06:14:10;8.90;99.90
12578;DHT22;6354;51.026;8.968;2022-09-24T06:16:38;8.90;99.90
12578;DHT22;6354;51.026;8.968;2022-09-24T06:19:06;8.90;99.90
12578;DHT22;6354;51.026;8.968;2022-09-24T06:21:35;9.00;99.90
12578;DHT22;6354;51.026;8.968;2022-09-24T06:24:03;9.00;99.90
12578;DHT22;6354;51.026;8.968;2022-09-24T06:26:31;9.10;99.90
12578;DHT22;6354;51.026;8.968;2022-09-24T06:29:01;9.10;99.90
12578;DHT22;6354;51.026;8.968;2022-09-24T06:31:31;9.10;99.90
12578;DHT22;6354;51.026;8.968;2022-09-24T06:34:00;9.20;99.90
12578;DHT22;6354;51.026;8.968;2022-09-24T06:36:29;9.20;99.90
12578;DHT22;6354;51.026;8.968;2022-09-24T06:38:57;9.20;99.90
12578;DHT22;6354;51.026;8.968;2022-09-24T06:41:25;9.30;99.90
12578;DHT22;6354;51.026;8.968;2022-09-24T06:43:53;9.30;99.90
12578;DHT22;6354;51.026;8.968;2022-09-24T06:46:23;9.60;99.90
12578;DHT22;6354;51.026;8.968;2022-09-24T06:48:51;10.00;99.90
12578;DHT22;6354;51.026;8.968;2022-09-24T06:51:20;10.40;99.90
12578;DHT22;6354;51.026;8.968;2022-09-24T06:53:50;10.70;99.90
12578;DHT22;6354;51.026;8.968;2022-09-24T06:56:19;11.00;99.90
12578;DHT22;6354;51.026;8.968;2022-09-24T06:58:47;11.30;99.90
12578;DHT22;6354;51.026;8.968;2022-09-24T07:01:15;11.50;99.90
12578;DHT22;6354;51.026;8.968;2022-09-24T07:03:44;11.70;99.90
12578;DHT22;6354;51.026;8.968;2022-09-24T07:06:12;11.80;99.90
12578;DHT22;6354;51.026;8.968;2022-09-24T07:08:40;12.00;99.90
12578;DHT22;6354;51.026;8.968;2022-09-24T07:11:08;11.90;99.90
12578;DHT22;6354;51.026;8.968;2022-09-24T07:13:36;12.10;99.90
12578;DHT22;6354;51.026;8.968;2022-09-24T07:16:05;12.30;99.90
12578;DHT22;6354;51.026;8.968;2022-09-24T07:18:33;12.50;99.90
12578;DHT22;6354;51.026;8.968;2022-09-24T07:21:04;12.60;99.90
12578;DHT22;6354;51.026;8.968;2022-09-24T07:23:32;12.80;99.90
12578;DHT22;6354;51.026;8.968;2022-09-24T07:26:01;12.90;99.90
12578;DHT22;6354;51.026;8.968;2022-09-24T07:28:29;13.00;99.90
12578;DHT22;6354;51.026;8.968;2022-09-24T07:30:58;13.20;99.90
12578;DHT22;6354;51.026;8.968;2022-09-24T07:33:26;13.40;99.90
12578;DHT22;6354;51.026;8.968;2022-09-24T07:35:54;13.40;99.90
12578;DHT22;6354;51.026;8.968;2022-09-24T07:38:24;13.50;99.90
12578;DHT22;6354;51.026;8.968;2022-09-24T07:40:56;13.40;99.90
12578;DHT22;6354;51.026;8.968;2022-09-24T07:43:24;13.40;99.90
12578;DHT22;6354;51.026;8.968;2022-09-24T07:45:54;13.40;99.90
12578;DHT22;6354;51.026;8.968;2022-09-24T07:48:24;13.50;99.90
12578;DHT22;6354;51.026;8.968;2022-09-24T07:50:52;13.50;99.90
12578;DHT22;6354;51.026;8.968;2022-09-24T07:53:20;13.50;99.90
12578;DHT22;6354;51.026;8.968;2022-09-24T07:55:50;13.50;99.90
12578;DHT22;6354;51.026;8.968;2022-09-24T07:58:18;13.50;99.90
12578;DHT22;6354;51.026;8.968;2022-09-24T08:00:47;13.60;99.90
12578;DHT22;6354;51.026;8.968;2022-09-24T08:03:15;13.80;99.90
12578;DHT22;6354;51.026;8.968;2022-09-24T08:05:43;13.90;99.90
12578;DHT22;6354;51.026;8.968;2022-09-24T08:08:11;13.90;99.90
12578;DHT22;6354;51.026;8.968;2022-09-24T08:10:40;14.10;99.90
12578;DHT22;6354;51.026;8.968;2022-09-24T08:13:10;14.20;99.90
12578;DHT22;6354;51.026;8.968;2022-09-24T08:15:38;14.30;99.90
12578;DHT22;6354;51.026;8.968;2022-09-24T08:18:07;14.30;99.90
12578;DHT22;6354;51.026;8.968;2022-09-24T08:20:36;14.40;99.90
12578;DHT22;6354;51.026;8.968;2022-09-24T08:23:06;14.50;99.90
12578;DHT22;6354;51.026;8.968;2022-09-24T08:25:35;14.60;99.90
12578;DHT22;6354;51.026;8.968;2022-09-24T08:28:04;14.60;99.90
12578;DHT22;6354;51.026;8.968;2022-09-24T08:30:34;14.60;99.90
12578;DHT22;6354;51.026;8.968;2022-09-24T08:33:03;14.80;99.90
12578;DHT22;6354;51.026;8.968;2022-09-24T08:35:32;14.90;99.90
12578;DHT22;6354;51.026;8.968;2022-09-24T08:38:01;15.00;99.90
12578;DHT22;6354;51.026;8.968;2022-09-24T08:40:32;15.00;99.90
12578;DHT22;6354;51.026;8.968;2022-09-24T08:43:05;14.90;99.90
12578;DHT22;6354;51.026;8.968;2022-09-24T08:45:43;15.00;99.90
12578;DHT22;6354;51.026;8.968;2022-09-24T08:48:34;15.00;99.90
12578;DHT22;6354;51.026;8.968;2022-09-24T08:51:06;15.00;99.90
12578;DHT22;6354;51.026;8.968;2022-09-24T08:53:42;15.00;99.90
12578;DHT22;6354;51.026;8.968;2022-09-24T08:56:12;15.10;99.90
12578;DHT22;6354;51.026;8.968;2022-09-24T08:58:45;15.10;99.90
12578;DHT22;6354;51.026;8.968;2022-09-24T09:01:22;15.00;99.90
12578;DHT22;6354;51.026;8.968;2022-09-24T09:03:54;15.00;99.90
12578;DHT22;6354;51.026;8.968;2022-09-24T09:06:45;15.00;99.90
12578;DHT22;6354;51.026;8.968;2022-09-24T09:09:16;15.10;99.90
12578;DHT22;6354;51.026;8.968;2022-09-24T09:11:48;15.10;99.90
12578;DHT22;6354;51.026;8.968;2022-09-24T09:14:19;15.20;99.90
12578;DHT22;6354;51.026;8.968;2022-09-24T09:16:53;15.20;99.90
12578;DHT22;6354;51.026;8.968;2022-09-24T09:19:27;15.20;99.90
12578;DHT22;6354;51.026;8.968;2022-09-24T09:21:59;15.30;99.90
12578;DHT22;6354;51.026;8.968;2022-09-24T09:24:35;15.20;99.90
12578;DHT22;6354;51.026;8.968;2022-09-24T09:27:11;15.20;99.90
12578;DHT22;6354;51.026;8.968;2022-09-24T09:29:41;15.30;99.90
12578;DHT22;6354;51.026;8.968;2022-09-24T09:32:20;15.40;99.90
12578;DHT22;6354;51.026;8.968;2022-09-24T09:34:57;15.50;99.90
12578;DHT22;6354;51.026;8.968;2022-09-24T09:37:37;15.50;99.90
12578;DHT22;6354;51.026;8.968;2022-09-24T09:40:16;15.50;99.90
12578;DHT22;6354;51.026;8.968;2022-09-24T09:43:00;15.60;99.90
12578;DHT22;6354;51.026;8.968;2022-09-24T09:45:33;15.70;99.90
12578;DHT22;6354;51.026;8.968;2022-09-24T09:48:08;15.70;99.90
12578;DHT22;6354;51.026;8.968;2022-09-24T09:50:44;15.80;99.90
12578;DHT22;6354;51.026;8.968;2022-09-24T09:53:19;15.90;99.90
12578;DHT22;6354;51.026;8.968;2022-09-24T09:55:52;15.90;99.90
12578;DHT22;6354;51.026;8.968;2022-09-24T09:58:22;16.00;99.90
12578;DHT22;6354;51.026;8.968;2022-09-24T10:00:51;16.00;99.90
12578;DHT22;6354;51.026;8.968;2022-09-24T10:03:23;16.10;99.90
12578;DHT22;6354;51.026;8.968;2022-09-24T10:05:54;16.20;99.90
12578;DHT22;6354;51.026;8.968;2022-09-24T10:08:23;16.30;99.90
12578;DHT22;6354;51.026;8.968;2022-09-24T10:10:52;16.30;99.90
12578;DHT22;6354;51.026;8.968;2022-09-24T10:13:22;16.40;99.90
12578;DHT22;6354;51.026;8.968;2022-09-24T10:15:52;16.50;99.90
12578;DHT22;6354;51.026;8.968;2022-09-24T10:18:28;16.50;99.90
12578;DHT22;6354;51.026;8.968;2022-09-24T10:20:59;16.50;99.90
12578;DHT22;6354;51.026;8.968;2022-09-24T10:23:34;16.50;99.90
12578;DHT22;6354;51.026;8.968;2022-09-24T10:26:03;16.50;99.90
12578;DHT22;6354;51.026;8.968;2022-09-24T10:28:33;16.40;99.90
12578;DHT22;6354;51.026;8.968;2022-09-24T10:31:20;16.40;99.90
12578;DHT22;6354;51.026;8.968;2022-09-24T10:33:53;16.30;99.90
12578;DHT22;6354;51.026;8.968;2022-09-24T10:36:24;16.40;99.90
12578;DHT22;6354;51.026;8.968;2022-09-24T10:39:02;16.40;99.90
12578;DHT22;6354;51.026;8.968;2022-09-24T10:41:31;16.50;99.90
12578;DHT22;6354;51.026;8.968;2022-09-24T10:44:02;16.60;99.90
12578;DHT22;6354;51.026;8.968;2022-09-24T10:46:59;16.60;99.90
12578;DHT22;6354;51.026;8.968;2022-09-24T10:49:47;16.70;99.90
12578;DHT22;6354;51.026;8.968;2022-09-24T10:52:39;16.80;99.90
12578;DHT22;6354;51.026;8.968;2022-09-24T10:55:20;16.90;99.90
12578;DHT22;6354;51.026;8.968;2022-09-24T10:57:57;16.90;99.90
12578;DHT22;6354;51.026;8.968;2022-09-24T11:00:36;17.10;99.90
12578;DHT22;6354;51.026;8.968;2022-09-24T11:03:22;17.20;99.90
12578;DHT22;6354;51.026;8.968;2022-09-24T11:06:00;17.30;99.90
12578;DHT22;6354;51.026;8.968;2022-09-24T11:08:43;17.30;99.90
12578;DHT22;6354;51.026;8.968;2022-09-24T11:11:25;17.50;99.90
12578;DHT22;6354;51.026;8.968;2022-09-24T11:14:05;17.50;99.90
12578;DHT22;6354;51.026;8.968;2022-09-24T11:16:48;17.60;99.90
12578;DHT22;6354;51.026;8.968;2022-09-24T11:19:33;17.60;99.90
12578;DHT22;6354;51.026;8.968;2022-09-24T11:22:12;17.60;99.90
12578;DHT22;6354;51.026;8.968;2022-09-24T11:27:47;17.80;99.90
12578;DHT22;6354;51.026;8.968;2022-09-24T11:30:19;17.90;99.90
12578;DHT22;6354;51.026;8.968;2022-09-24T11:32:59;18.10;99.90
12578;DHT22;6354;51.026;8.968;2022-09-24T11:38:41;18.10;99.90
12578;DHT22;6354;51.026;8.968;2022-09-24T11:41:22;18.00;99.90
12578;DHT22;6354;51.026;8.968;2022-09-24T11:44:07;18.20;99.90
12578;DHT22;6354;51.026;8.968;2022-09-24T11:46:47;18.30;99.90
12578;DHT22;6354;51.026;8.968;2022-09-24T11:49:28;18.30;99.90
12578;DHT22;6354;51.026;8.968;2022-09-24T11:52:04;18.20;99.90
12578;DHT22;6354;51.026;8.968;2022-09-24T11:54:41;18.10;99.90
12578;DHT22;6354;51.026;8.968;2022-09-24T11:57:14;18.20;99.90
12578;DHT22;6354;51.026;8.968;2022-09-24T11:59:49;18.20;99.90
12578;DHT22;6354;51.026;8.968;2022-09-24T12:02:22;18.20;99.90
12578;DHT22;6354;51.026;8.968;2022-09-24T12:04:56;18.30;99.90
12578;DHT22;6354;51.026;8.968;2022-09-24T12:07:32;18.50;99.90
12578;DHT22;6354;51.026;8.968;2022-09-24T12:12:41;18.70;99.90
12578;DHT22;6354;51.026;8.968;2022-09-24T12:15:14;18.80;99.90
12578;DHT22;6354;51.026;8.968;2022-09-24T12:17:48;18.80;99.90
12578;DHT22;6354;51.026;8.968;2022-09-24T12:20:21;18.80;99.90
12578;DHT22;6354;51.026;8.968;2022-09-24T12:22:54;18.70;99.90
12578;DHT22;6354;51.026;8.968;2022-09-24T12:25:28;18.80;99.90
12578;DHT22;6354;51.026;8.968;2022-09-24T12:28:00;18.70;99.90
12578;DHT22;6354;51.026;8.968;2022-09-24T12:30:33;18.70;99.90
12578;DHT22;6354;51.026;8.968;2022-09-24T12:33:23;18.80;99.90
12578;DHT22;6354;51.026;8.968;2022-09-24T12:36:01;18.70;99.90
12578;DHT22;6354;51.026;8.968;2022-09-24T12:38:34;18.70;99.90
12578;DHT22;6354;51.026;8.968;2022-09-24T12:41:18;18.60;99.90
12578;DHT22;6354;51.026;8.968;2022-09-24T12:43:50;18.70;99.90
12578;DHT22;6354;51.026;8.968;2022-09-24T12:46:21;18.70;99.90
12578;DHT22;6354;51.026;8.968;2022-09-24T12:48:51;18.70;99.90
12578;DHT22;6354;51.026;8.968;2022-09-24T12:51:21;18.80;99.90
12578;DHT22;6354;51.026;8.968;2022-09-24T12:53:58;18.80;99.90
12578;DHT22;6354;51.026;8.968;2022-09-24T12:56:29;18.90;99.90
12578;DHT22;6354;51.026;8.968;2022-09-24T12:58:57;19.00;99.90
12578;DHT22;6354;51.026;8.968;2022-09-24T13:01:27;19.00;99.90
12578;DHT22;6354;51.026;8.968;2022-09-24T13:04:05;19.10;99.90
12578;DHT22;6354;51.026;8.968;2022-09-24T13:06:35;19.10;99.90
12578;DHT22;6354;51.026;8.968;2022-09-24T13:09:32;19.20;99.90
12578;DHT22;6354;51.026;8.968;2022-09-24T13:12:05;19.20;99.90
12578;DHT22;6354;51.026;8.968;2022-09-24T13:14:49;19.30;99.90
12578;DHT22;6354;51.026;8.968;2022-09-24T13:17:19;19.30;99.90
12578;DHT22;6354;51.026;8.968;2022-09-24T13:19:48;19.40;99.90
12578;DHT22;6354;51.026;8.968;2022-09-24T13:22:21;19.30;99.90
12578;DHT22;6354;51.026;8.968;2022-09-24T13:24:51;19.20;99.90
12578;DHT22;6354;51.026;8.968;2022-09-24T13:27:32;19.20;99.90
12578;DHT22;6354;51.026;8.968;2022-09-24T13:30:12;19.10;99.90
12578;DHT22;6354;51.026;8.968;2022-09-24T13:32:48;19.00;99.90
12578;DHT22;6354;51.026;8.968;2022-09-24T13:35:21;19.00;99.90
12578;DHT22;6354;51.026;8.968;2022-09-24T13:37:54;18.90;99.90
12578;DHT22;6354;51.026;8.968;2022-09-24T13:40:27;19.00;99.90
12578;DHT22;6354;51.026;8.968;2022-09-24T13:43:04;19.00;99.90
12578;DHT22;6354;51.026;8.968;2022-09-24T13:45:37;19.00;99.90
12578;DHT22;6354;51.026;8.968;2022-09-24T13:48:17;18.90;99.90
12578;DHT22;6354;51.026;8.968;2022-09-24T13:50:49;18.90;99.90
12578;DHT22;6354;51.026;8.968;2022-09-24T13:53:24;18.90;99.90
12578;DHT22;6354;51.026;8.968;2022-09-24T13:55:58;18.80;99.90
12578;DHT22;6354;51.026;8.968;2022-09-24T13:58:29;18.80;99.90
12578;DHT22;6354;51.026;8.968;2022-09-24T14:01:01;18.80;99.90
12578;DHT22;6354;51.026;8.968;2022-09-24T14:03:36;18.80;99.90
12578;DHT22;6354;51.026;8.968;2022-09-24T14:06:09;18.70;99.90
12578;DHT22;6354;51.026;8.968;2022-09-24T14:08:40;18.60;99.90
12578;DHT22;6354;51.026;8.968;2022-09-24T14:11:14;18.70;99.90
12578;DHT22;6354;51.026;8.968;2022-09-24T14:13:44;18.60;99.90
12578;DHT22;6354;51.026;8.968;2022-09-24T14:16:15;18.60;99.90
12578;DHT22;6354;51.026;8.968;2022-09-24T14:18:45;18.70;99.90
12578;DHT22;6354;51.026;8.968;2022-09-24T14:21:16;18.70;99.90
12578;DHT22;6354;51.026;8.968;2022-09-24T14:23:49;18.70;99.90
12578;DHT22;6354;51.026;8.968;2022-09-24T14:26:25;18.70;99.90
12578;DHT22;6354;51.026;8.968;2022-09-24T14:28:58;18.70;99.90
12578;DHT22;6354;51.026;8.968;2022-09-24T14:31:28;18.60;99.90
12578;DHT22;6354;51.026;8.968;2022-09-24T14:33:57;18.60;99.90
12578;DHT22;6354;51.026;8.968;2022-09-24T14:36:28;18.60;99.90
12578;DHT22;6354;51.026;8.968;2022-09-24T14:39:00;18.50;99.90
12578;DHT22;6354;51.026;8.968;2022-09-24T14:41:30;18.60;99.90
12578;DHT22;6354;51.026;8.968;2022-09-24T14:44:02;18.70;99.90
12578;DHT22;6354;51.026;8.968;2022-09-24T14:46:34;18.60;99.90
12578;DHT22;6354;51.026;8.968;2022-09-24T14:49:05;18.60;99.90
12578;DHT22;6354;51.026;8.968;2022-09-24T14:51:34;18.70;99.90
12578;DHT22;6354;51.026;8.968;2022-09-24T14:54:17;18.60;99.90
12578;DHT22;6354;51.026;8.968;2022-09-24T14:56:46;18.60;99.90
12578;DHT22;6354;51.026;8.968;2022-09-24T14:59:26;18.60;99.90
12578;DHT22;6354;51.026;8.968;2022-09-24T15:02:03;18.50;99.90
12578;DHT22;6354;51.026;8.968;2022-09-24T15:04:33;18.50;99.90
12578;DHT22;6354;51.026;8.968;2022-09-24T15:07:01;18.50;99.90
12578;DHT22;6354;51.026;8.968;2022-09-24T15:09:30;18.40;99.90
12578;DHT22;6354;51.026;8.968;2022-09-24T15:12:06;18.40;99.90
12578;DHT22;6354;51.026;8.968;2022-09-24T15:14:36;18.40;99.90
12578;DHT22;6354;51.026;8.968;2022-09-24T15:17:08;18.40;99.90
12578;DHT22;6354;51.026;8.968;2022-09-24T15:19:37;18.30;99.90
12578;DHT22;6354;51.026;8.968;2022-09-24T15:22:08;18.20;99.90
12578;DHT22;6354;51.026;8.968;2022-09-24T15:24:37;18.20;99.90
12578;DHT22;6354;51.026;8.968;2022-09-24T15:27:14;18.10;99.90
12578;DHT22;6354;51.026;8.968;2022-09-24T15:29:44;18.10;99.90
12578;DHT22;6354;51.026;8.968;2022-09-24T15:32:14;18.00;99.90
12578;DHT22;6354;51.026;8.968;2022-09-24T15:34:43;18.00;99.90
12578;DHT22;6354;51.026;8.968;2022-09-24T15:37:14;17.90;99.90
12578;DHT22;6354;51.026;8.968;2022-09-24T15:39:43;17.90;99.90
12578;DHT22;6354;51.026;8.968;2022-09-24T15:42:15;17.80;99.90
12578;DHT22;6354;51.026;8.968;2022-09-24T15:44:45;17.80;99.90
12578;DHT22;6354;51.026;8.968;2022-09-24T15:47:14;17.70;99.90
12578;DHT22;6354;51.026;8.968;2022-09-24T15:49:42;17.80;99.90
12578;DHT22;6354;51.026;8.968;2022-09-24T15:52:13;17.70;99.90
12578;DHT22;6354;51.026;8.968;2022-09-24T15:54:42;17.70;99.90
12578;DHT22;6354;51.026;8.968;2022-09-24T15:57:11;17.60;99.90
12578;DHT22;6354;51.026;8.968;2022-09-24T15:59:39;17.60;99.90
12578;DHT22;6354;51.026;8.968;2022-09-24T16:02:15;17.50;99.90
12578;DHT22;6354;51.026;8.968;2022-09-24T16:04:44;17.50;99.90
12578;DHT22;6354;51.026;8.968;2022-09-24T16:07:12;17.50;99.90
12578;DHT22;6354;51.026;8.968;2022-09-24T16:09:40;17.50;99.90
12578;DHT22;6354;51.026;8.968;2022-09-24T16:12:09;17.40;99.90
12578;DHT22;6354;51.026;8.968;2022-09-24T16:14:37;17.30;99.90
12578;DHT22;6354;51.026;8.968;2022-09-24T16:17:05;17.30;99.90
12578;DHT22;6354;51.026;8.968;2022-09-24T16:19:34;17.30;99.90
12578;DHT22;6354;51.026;8.968;2022-09-24T16:22:03;17.20;99.90
12578;DHT22;6354;51.026;8.968;2022-09-24T16:24:31;17.20;99.90
12578;DHT22;6354;51.026;8.968;2022-09-24T16:26:59;17.10;99.90
12578;DHT22;6354;51.026;8.968;2022-09-24T16:29:27;17.10;99.90
12578;DHT22;6354;51.026;8.968;2022-09-24T16:31:55;17.10;99.90
12578;DHT22;6354;51.026;8.968;2022-09-24T16:34:23;17.00;99.90